Fortune Amaryllis — VRDT3 — position and weather

sailwx.info

Track history (hours):
 
Tides and Currents Weather Stations Pressure Air Temp Water Temp Dewpoint Dewpoint Depression Visibility Wind Speed Wind Dir Waves Ship Positions

Fortune Amaryllis

Last reported at 2017-Dec-04 10:28 UTC. Time now 2017-Dec-16 01:53 UTC.
Position N 48°05' W 006°28'.
Warning: this ship's position is 11 days out of date.

Length 175 m; draft 9.5 m.

Type: Ship. MMSI: 477046800.

Date/timePositionNaut miles runAvg speedWind from/ knotsBaromVisibWave heightAir tempDewpointWater temp
2017-Dec-04 10:28N 48°05' W 006°28'814.3
2017-Dec-04 09:56N 48°11' W 006°21'914.8
2017-Dec-04 09:21N 48°19' W 006°14'1115.1
2017-Dec-04 08:35N 48°28' W 006°05'315.1
2017-Dec-04 08:23N 48°31' W 006°03'3513.4
2017-Dec-04 05:45N 48°59' W 005°31'511.5
2017-Dec-04 05:17N 49°02' W 005°24'311.0
2017-Dec-04 04:59N 49°04' W 005°20'3511.3
2017-Dec-04 01:55N 49°22' W 004°35'612.7
2017-Dec-04 01:25N 49°25' W 004°26'613.3
2017-Dec-04 00:56N 49°28' W 004°18'914.0
2017-Dec-04 00:18N 49°33' W 004°06'514.6
2017-Dec-03 23:58N 49°35' W 003°60'814.8
2017-Dec-03 23:26N 49°40' W 003°49'714.7
2017-Dec-03 22:58N 49°43' W 003°40'814.4
2017-Dec-03 22:25N 49°47' W 003°29'613.9
2017-Dec-03 22:00N 49°50' W 003°21'713.4
2017-Dec-03 21:30N 49°53' W 003°13'612.6
2017-Dec-03 21:00N 49°57' W 003°04'611.8
2017-Dec-03 20:30N 50°00' W 002°57'510.9
2017-Dec-03 20:00N 50°01' W 002°49'610.6
2017-Dec-03 19:28N 50°03' W 002°40'2610.5
2017-Dec-03 16:59N 50°09' W 002°01'612.3
2017-Dec-03 16:30N 50°11' W 001°52'713.4
2017-Dec-03 16:00N 50°13' W 001°42'714.5
2017-Dec-03 15:30N 50°15' W 001°31'815.2
2017-Dec-03 15:00N 50°17' W 001°19'3515.9
2017-Dec-03 12:49N 50°26' W 000°27'514.9
2017-Dec-03 12:30N 50°27' W 000°20'714.3
2017-Dec-03 12:00N 50°29' W 000°09'713.7
2017-Dec-03 11:30N 50°31' E 000°01'713.4
2017-Dec-03 11:00N 50°32' E 000°12'612.8
2017-Dec-03 10:30N 50°34' E 000°21'612.2
2017-Dec-03 10:00N 50°36' E 000°31'611.8
2017-Dec-03 09:30N 50°38' E 000°39'611.9
2017-Dec-03 09:00N 50°41' E 000°47'611.7
2017-Dec-03 08:30N 50°45' E 000°55'612.2
2017-Dec-03 07:59N 50°48' E 001°03'713.1
2017-Dec-03 07:29N 50°52' E 001°12'713.7
2017-Dec-03 07:00N 50°56' E 001°20'715.1
2017-Dec-03 06:30N 51°01' E 001°28'815.8
2017-Dec-03 06:00N 51°07' E 001°37'714.8
2017-Dec-03 05:31N 51°13' E 001°45'713.9
2017-Dec-03 05:00N 51°19' E 001°50'612.7
2017-Dec-03 04:30N 51°24' E 001°54'612.4
2017-Dec-03 04:00N 51°29' E 002°00'612.1
2017-Dec-03 03:30N 51°34' E 002°07'18511.8
2017-Dec-02 11:51N 54°06' E 004°59'412.3
2017-Dec-02 11:30N 54°10' E 005°03'612.4
2017-Dec-02 11:00N 54°15' E 005°09'612.3
2017-Dec-02 10:29N 54°20' E 005°15'27112.1
2017-Dec-01 12:04N 57°49' E 010°23'113.0
2017-Dec-01 12:00N 57°49' E 010°25'612.4
2017-Dec-01 11:31N 57°49' E 010°36'510.9
2017-Dec-01 11:00N 57°47' E 010°46'4 7.2
2017-Dec-01 10:30N 57°43' E 010°44'4 7.4
2017-Dec-01 10:00N 57°41' E 010°38'0 0.5
2017-Dec-01 09:29N 57°41' E 010°38'0 0.0
2017-Dec-01 08:59N 57°41' E 010°38'0 0.0
2017-Dec-01 08:29N 57°41' E 010°38'0 0.0
2017-Dec-01 07:59N 57°41' E 010°38'0 0.0
2017-Dec-01 07:29N 57°41' E 010°38'0 0.0
2017-Dec-01 06:59N 57°41' E 010°38'0 0.1
2017-Dec-01 06:26N 57°41' E 010°38'0 0.0
2017-Dec-01 05:59N 57°41' E 010°38'0 0.7
2017-Dec-01 05:30N 57°41' E 010°38'1 2.1
2017-Dec-01 05:00N 57°40' E 010°37'4 7.4
2017-Dec-01 04:30N 57°38' E 010°43'510.8
2017-Dec-01 04:00N 57°35' E 010°52'510.9
2017-Dec-01 03:30N 57°34' E 011°02'611.7
2017-Dec-01 03:00N 57°33' E 011°13'611.8
2017-Dec-01 02:30N 57°30' E 011°23'611.0
2017-Dec-01 02:00N 57°26' E 011°28'611.5
2017-Dec-01 01:30N 57°20' E 011°31'611.7
2017-Dec-01 01:00N 57°15' E 011°35'611.9
2017-Dec-01 00:30N 57°09' E 011°38'612.0
2017-Nov-30 23:59N 57°03' E 011°43'10310.7
2017-Nov-30 14:18N 55°22' E 011°02'413.1
2017-Nov-30 14:01N 55°19' E 011°03'612.4
2017-Nov-30 13:31N 55°13' E 011°06'612.2
2017-Nov-30 13:01N 55°07' E 011°03'612.2
2017-Nov-30 12:31N 55°01' E 010°60'612.1
2017-Nov-30 12:00N 54°56' E 010°54'612.1
2017-Nov-30 11:30N 54°50' E 010°50'612.1
2017-Nov-30 11:01N 54°44' E 010°49'510.4
2017-Nov-30 10:30N 54°39' E 010°52'612.4
2017-Nov-30 10:01N 54°36' E 011°01'611.9
2017-Nov-30 09:31N 54°35' E 011°11'612.1
2017-Nov-30 09:00N 54°33' E 011°21'612.3
2017-Nov-30 08:30N 54°30' E 011°30'612.3
2017-Nov-30 08:01N 54°28' E 011°40'612.0
2017-Nov-30 07:31N 54°26' E 011°50'612.0
2017-Nov-30 07:01N 54°26' E 012°00'6410.8
2017-Nov-30 01:08N 54°58' E 013°35'512.6
2017-Nov-30 00:43N 55°00' E 013°44'312.7
2017-Nov-30 00:30N 55°01' E 013°48'712.7
2017-Nov-29 23:55N 55°03' E 014°00'612.5
2017-Nov-29 23:26N 55°07' E 014°08'612.8
2017-Nov-29 23:00N 55°11' E 014°15'713.1
2017-Nov-29 22:27N 55°17' E 014°23'613.4
2017-Nov-29 22:01N 55°22' E 014°29'713.1
2017-Nov-29 21:29N 55°27' E 014°37'713.0
2017-Nov-29 20:58N 55°30' E 014°48'713.1
2017-Nov-29 20:26N 55°33' E 014°59'513.1
2017-Nov-29 20:01N 55°36' E 015°07'713.1
2017-Nov-29 19:31N 55°39' E 015°18'713.1
2017-Nov-29 19:00N 55°42' E 015°28'612.9
2017-Nov-29 18:31N 55°45' E 015°38'612.8
2017-Nov-29 18:00N 55°48' E 015°48'612.7
2017-Nov-29 17:31N 55°51' E 015°58'612.4
2017-Nov-29 17:01N 55°54' E 016°07'612.3
2017-Nov-29 16:30N 55°58' E 016°16'612.2
2017-Nov-29 16:01N 56°01' E 016°26'612.1
2017-Nov-29 15:31N 56°04' E 016°35'612.3
2017-Nov-29 15:00N 56°08' E 016°44'612.0
2017-Nov-29 14:30N 56°11' E 016°53'  
Track history (hours):
 
Tides and Currents Weather Stations Pressure Air Temp Water Temp Dewpoint Dewpoint Depression Visibility Wind Speed Wind Dir Waves Ship Positions

Fortune Amaryllis

Last reported at 2017-Dec-04 10:28 UTC. Time now 2017-Dec-16 01:53 UTC.
Position N 48°05' W 006°28'.
Warning: this ship's position is 11 days out of date.

Length 175 m; draft 9.5 m.

Type: Ship. MMSI: 477046800.

Date/timePositionNaut miles runAvg speedWind from/ knotsBaromVisibWave heightAir tempDewpointWater temp
2017-Dec-04 10:28N 48°05' W 006°28'814.3
2017-Dec-04 09:56N 48°11' W 006°21'914.8
2017-Dec-04 09:21N 48°19' W 006°14'1115.1
2017-Dec-04 08:35N 48°28' W 006°05'315.1
2017-Dec-04 08:23N 48°31' W 006°03'3513.4
2017-Dec-04 05:45N 48°59' W 005°31'511.5
2017-Dec-04 05:17N 49°02' W 005°24'311.0
2017-Dec-04 04:59N 49°04' W 005°20'3511.3
2017-Dec-04 01:55N 49°22' W 004°35'612.7
2017-Dec-04 01:25N 49°25' W 004°26'613.3
2017-Dec-04 00:56N 49°28' W 004°18'914.0
2017-Dec-04 00:18N 49°33' W 004°06'514.6
2017-Dec-03 23:58N 49°35' W 003°60'814.8
2017-Dec-03 23:26N 49°40' W 003°49'714.7
2017-Dec-03 22:58N 49°43' W 003°40'814.4
2017-Dec-03 22:25N 49°47' W 003°29'613.9
2017-Dec-03 22:00N 49°50' W 003°21'713.4
2017-Dec-03 21:30N 49°53' W 003°13'612.6
2017-Dec-03 21:00N 49°57' W 003°04'611.8
2017-Dec-03 20:30N 50°00' W 002°57'510.9
2017-Dec-03 20:00N 50°01' W 002°49'610.6
2017-Dec-03 19:28N 50°03' W 002°40'2610.5
2017-Dec-03 16:59N 50°09' W 002°01'612.3
2017-Dec-03 16:30N 50°11' W 001°52'713.4
2017-Dec-03 16:00N 50°13' W 001°42'714.5
2017-Dec-03 15:30N 50°15' W 001°31'815.2
2017-Dec-03 15:00N 50°17' W 001°19'3515.9
2017-Dec-03 12:49N 50°26' W 000°27'514.9
2017-Dec-03 12:30N 50°27' W 000°20'714.3
2017-Dec-03 12:00N 50°29' W 000°09'713.7
2017-Dec-03 11:30N 50°31' E 000°01'713.4
2017-Dec-03 11:00N 50°32' E 000°12'612.8
2017-Dec-03 10:30N 50°34' E 000°21'612.2
2017-Dec-03 10:00N 50°36' E 000°31'611.8
2017-Dec-03 09:30N 50°38' E 000°39'611.9
2017-Dec-03 09:00N 50°41' E 000°47'611.7
2017-Dec-03 08:30N 50°45' E 000°55'612.2
2017-Dec-03 07:59N 50°48' E 001°03'713.1
2017-Dec-03 07:29N 50°52' E 001°12'713.7
2017-Dec-03 07:00N 50°56' E 001°20'715.1
2017-Dec-03 06:30N 51°01' E 001°28'815.8
2017-Dec-03 06:00N 51°07' E 001°37'714.8
2017-Dec-03 05:31N 51°13' E 001°45'713.9
2017-Dec-03 05:00N 51°19' E 001°50'612.7
2017-Dec-03 04:30N 51°24' E 001°54'612.4
2017-Dec-03 04:00N 51°29' E 002°00'612.1
2017-Dec-03 03:30N 51°34' E 002°07'18511.8
2017-Dec-02 11:51N 54°06' E 004°59'412.3
2017-Dec-02 11:30N 54°10' E 005°03'612.4
2017-Dec-02 11:00N 54°15' E 005°09'612.3
2017-Dec-02 10:29N 54°20' E 005°15'27112.1
2017-Dec-01 12:04N 57°49' E 010°23'113.0
2017-Dec-01 12:00N 57°49' E 010°25'612.4
2017-Dec-01 11:31N 57°49' E 010°36'510.9
2017-Dec-01 11:00N 57°47' E 010°46'4 7.2
2017-Dec-01 10:30N 57°43' E 010°44'4 7.4
2017-Dec-01 10:00N 57°41' E 010°38'0 0.5
2017-Dec-01 09:29N 57°41' E 010°38'0 0.0
2017-Dec-01 08:59N 57°41' E 010°38'0 0.0
2017-Dec-01 08:29N 57°41' E 010°38'0 0.0
2017-Dec-01 07:59N 57°41' E 010°38'0 0.0
2017-Dec-01 07:29N 57°41' E 010°38'0 0.0
2017-Dec-01 06:59N 57°41' E 010°38'0 0.1
2017-Dec-01 06:26N 57°41' E 010°38'0 0.0
2017-Dec-01 05:59N 57°41' E 010°38'0 0.7
2017-Dec-01 05:30N 57°41' E 010°38'1 2.1
2017-Dec-01 05:00N 57°40' E 010°37'4 7.4
2017-Dec-01 04:30N 57°38' E 010°43'510.8
2017-Dec-01 04:00N 57°35' E 010°52'510.9
2017-Dec-01 03:30N 57°34' E 011°02'611.7
2017-Dec-01 03:00N 57°33' E 011°13'611.8
2017-Dec-01 02:30N 57°30' E 011°23'611.0
2017-Dec-01 02:00N 57°26' E 011°28'611.5
2017-Dec-01 01:30N 57°20' E 011°31'611.7
2017-Dec-01 01:00N 57°15' E 011°35'611.9
2017-Dec-01 00:30N 57°09' E 011°38'612.0
2017-Nov-30 23:59N 57°03' E 011°43'10310.7
2017-Nov-30 14:18N 55°22' E 011°02'413.1
2017-Nov-30 14:01N 55°19' E 011°03'612.4
2017-Nov-30 13:31N 55°13' E 011°06'612.2
2017-Nov-30 13:01N 55°07' E 011°03'612.2
2017-Nov-30 12:31N 55°01' E 010°60'612.1
2017-Nov-30 12:00N 54°56' E 010°54'612.1
2017-Nov-30 11:30N 54°50' E 010°50'612.1
2017-Nov-30 11:01N 54°44' E 010°49'510.4
2017-Nov-30 10:30N 54°39' E 010°52'612.4
2017-Nov-30 10:01N 54°36' E 011°01'611.9
2017-Nov-30 09:31N 54°35' E 011°11'612.1
2017-Nov-30 09:00N 54°33' E 011°21'612.3
2017-Nov-30 08:30N 54°30' E 011°30'612.3
2017-Nov-30 08:01N 54°28' E 011°40'612.0
2017-Nov-30 07:31N 54°26' E 011°50'612.0
2017-Nov-30 07:01N 54°26' E 012°00'6410.8
2017-Nov-30 01:08N 54°58' E 013°35'512.6
2017-Nov-30 00:43N 55°00' E 013°44'312.7
2017-Nov-30 00:30N 55°01' E 013°48'712.7
2017-Nov-29 23:55N 55°03' E 014°00'612.5
2017-Nov-29 23:26N 55°07' E 014°08'612.8
2017-Nov-29 23:00N 55°11' E 014°15'713.1
2017-Nov-29 22:27N 55°17' E 014°23'613.4
2017-Nov-29 22:01N 55°22' E 014°29'713.1
2017-Nov-29 21:29N 55°27' E 014°37'713.0
2017-Nov-29 20:58N 55°30' E 014°48'713.1
2017-Nov-29 20:26N 55°33' E 014°59'513.1
2017-Nov-29 20:01N 55°36' E 015°07'713.1
2017-Nov-29 19:31N 55°39' E 015°18'713.1
2017-Nov-29 19:00N 55°42' E 015°28'612.9
2017-Nov-29 18:31N 55°45' E 015°38'612.8
2017-Nov-29 18:00N 55°48' E 015°48'612.7
2017-Nov-29 17:31N 55°51' E 015°58'612.4
2017-Nov-29 17:01N 55°54' E 016°07'612.3
2017-Nov-29 16:30N 55°58' E 016°16'612.2
2017-Nov-29 16:01N 56°01' E 016°26'612.1
2017-Nov-29 15:31N 56°04' E 016°35'612.3
2017-Nov-29 15:00N 56°08' E 016°44'612.0
2017-Nov-29 14:30N 56°11' E 016°53'  

Dump ship's entire track history